Time;durP1;ratioP1;P1;durP2;ratioP2;P2;SDS_P1;SDS_P2;PMS_P1;PMS_P2;Temp;Humidity;BMP_temperature;BMP_pressure;BME280_temperature;BME280_humidity;BME280_pressure;Samples;Min_cycle;Max_cycle;Signal;HPM_P1;HPM_P2
2023/09/20 00:02:22;;;;;;;3.47;1.80;;;18.70;75.70;;;;;;5114930;28;20019;-35
2023/09/20 00:04:48;;;;;;;5.40;1.50;;;18.60;75.70;;;;;;5114881;28;20076;-35
2023/09/20 00:07:14;;;;;;;7.43;1.65;;;18.70;75.70;;;;;;5114855;28;20034;-35
2023/09/20 00:09:40;;;;;;;2.75;1.60;;;18.70;75.70;;;;;;5096657;28;20024;-35
2023/09/20 00:12:07;;;;;;;3.75;1.75;;;18.70;75.70;;;;;;5114742;28;20034;-36
2023/09/20 00:14:32;;;;;;;3.90;1.80;;;18.70;75.70;;;;;;5114594;28;20024;-35
2023/09/20 00:17:00;;;;;;;3.78;1.60;;;18.70;75.70;;;;;;5114678;28;20027;-35
2023/09/20 00:19:25;;;;;;;3.95;1.35;;;18.70;75.70;;;;;;5114607;28;20046;-36
2023/09/20 00:21:51;;;;;;;6.43;1.55;;;18.70;75.70;;;;;;5114540;28;20087;-37
2023/09/20 00:24:16;;;;;;;2.92;1.58;;;18.70;75.70;;;;;;5114311;28;20030;-35
2023/09/20 00:26:42;;;;;;;6.00;1.70;;;18.70;75.70;;;;;;5114118;28;20148;-42
2023/09/20 00:29:08;;;;;;;6.30;2.30;;;18.70;75.80;;;;;;5114289;28;20031;-36
2023/09/20 00:31:34;;;;;;;3.22;1.65;;;18.70;75.80;;;;;;5114320;28;20091;-41
2023/09/20 00:34:03;;;;;;;5.00;1.73;;;18.70;75.80;;;;;;5113250;28;20051;-36
2023/09/20 00:36:29;;;;;;;3.58;1.70;;;18.70;75.80;;;;;;5114072;28;20026;-34
2023/09/20 00:38:55;;;;;;;4.85;1.40;;;18.70;75.80;;;;;;5114149;28;20020;-37
2023/09/20 00:41:22;;;;;;;3.88;1.50;;;18.70;75.80;;;;;;5114129;28;20065;-36
2023/09/20 00:43:52;;;;;;;3.88;1.60;;;18.70;75.80;;;;;;5114188;28;20047;-36
2023/09/20 00:46:19;;;;;;;3.80;1.65;;;18.70;75.90;;;;;;5113779;28;20023;-35
2023/09/20 00:48:45;;;;;;;5.22;1.65;;;18.70;75.90;;;;;;5113941;28;20153;-36
2023/09/20 00:51:11;;;;;;;5.22;1.90;;;18.70;75.90;;;;;;5113895;28;20024;-33
2023/09/20 00:53:38;;;;;;;2.75;1.77;;;18.70;75.90;;;;;;5113869;28;20028;-38
2023/09/20 00:56:09;;;;;;;3.20;1.65;;;18.70;76.00;;;;;;5113807;28;20035;-36
2023/09/20 00:58:35;;;;;;;4.82;1.92;;;18.70;76.70;;;;;;5113899;28;20026;-37
2023/09/20 01:01:03;;;;;;;5.82;2.10;;;18.70;76.20;;;;;;5095204;28;20027;-36
2023/09/20 01:03:32;;;;;;;3.78;2.03;;;18.60;76.20;;;;;;5113345;28;20069;-36
2023/09/20 01:06:00;;;;;;;5.55;1.90;;;18.60;76.10;;;;;;5113636;28;20098;-37
2023/09/20 01:08:25;;;;;;;4.95;1.60;;;18.70;76.20;;;;;;5113717;28;20855;-36
2023/09/20 01:10:52;;;;;;;4.22;1.70;;;18.60;76.10;;;;;;5113682;28;20051;-34
2023/09/20 01:13:18;;;;;;;5.57;2.13;;;18.70;76.20;;;;;;5113504;28;20011;-38
2023/09/20 01:15:44;;;;;;;3.67;1.50;;;18.70;76.20;;;;;;5113595;28;20385;-36
2023/09/20 01:18:10;;;;;;;7.32;1.90;;;18.70;76.20;;;;;;5113420;28;20047;-34
2023/09/20 01:20:39;;;;;;;6.35;2.10;;;18.70;76.20;;;;;;5113420;28;20023;-35
2023/09/20 01:23:04;;;;;;;2.88;1.55;;;18.60;76.20;;;;;;5113196;28;20024;-37
2023/09/20 01:25:43;;;;;;;3.83;1.52;;;18.60;76.30;;;;;;5113146;28;20019;-34
2023/09/20 01:28:10;;;;;;;4.15;1.80;;;18.60;76.40;;;;;;5113447;28;20061;-35
2023/09/20 01:30:41;;;;;;;4.93;2.00;;;18.50;76.50;;;;;;5113199;28;20031;-35
2023/09/20 01:33:08;;;;;;;6.68;1.60;;;18.40;76.60;;;;;;5113186;28;20125;-35
2023/09/20 01:35:34;;;;;;;4.80;1.70;;;18.40;76.70;;;;;;5113226;28;20028;-35
2023/09/20 01:38:04;;;;;;;2.58;1.48;;;18.40;76.80;;;;;;5113090;28;20011;-35
2023/09/20 01:40:33;;;;;;;5.18;1.90;;;18.30;76.90;;;;;;5112955;28;20019;-34
2023/09/20 01:42:59;;;;;;;3.75;1.70;;;18.30;77.00;;;;;;5113034;28;20024;-38
2023/09/20 01:45:26;;;;;;;4.43;1.50;;;18.20;77.10;;;;;;5112571;28;20023;-36
2023/09/20 01:47:54;;;;;;;3.60;1.60;;;18.20;77.20;;;;;;5112691;28;20032;-35
2023/09/20 01:50:21;;;;;;;2.90;1.52;;;18.10;77.30;;;;;;5112883;28;20473;-36
2023/09/20 01:52:48;;;;;;;3.58;1.50;;;18.10;77.40;;;;;;5112785;28;20051;-36
2023/09/20 01:55:15;;;;;;;6.18;1.85;;;18.00;77.40;;;;;;5112422;28;20061;-36
2023/09/20 01:57:45;;;;;;;4.13;1.70;;;18.00;77.50;;;;;;5112663;28;20048;-36
2023/09/20 02:00:22;;;;;;;5.35;1.83;;;18.00;77.70;;;;;;5112662;28;20068;-35
2023/09/20 02:02:48;;;;;;;4.18;1.70;;;17.90;77.80;;;;;;5112622;28;20030;-33
2023/09/20 02:05:14;;;;;;;4.22;1.50;;;17.90;77.80;;;;;;5112259;28;20027;-35
2023/09/20 02:07:40;;;;;;;2.58;1.50;;;17.90;77.90;;;;;;5112555;28;20096;-41
2023/09/20 02:10:08;;;;;;;4.90;1.83;;;17.90;78.00;;;;;;5112462;28;20065;-36
2023/09/20 02:12:34;;;;;;;4.75;1.63;;;17.90;78.10;;;;;;5112680;28;20141;-36
2023/09/20 02:15:01;;;;;;;3.63;1.60;;;17.80;78.10;;;;;;5112545;28;20512;-36
2023/09/20 02:17:28;;;;;;;3.50;1.40;;;17.80;78.20;;;;;;5112591;28;20020;-36
2023/09/20 02:19:54;;;;;;;3.50;1.70;;;17.80;78.20;;;;;;5112674;28;20080;-36
2023/09/20 02:22:20;;;;;;;5.93;2.45;;;17.80;78.30;;;;;;5112610;28;20027;-35
2023/09/20 02:24:46;;;;;;;5.20;1.73;;;17.80;78.40;;;;;;5112372;28;20445;-36
2023/09/20 02:27:11;;;;;;;6.28;1.65;;;17.70;78.40;;;;;;5112243;28;20099;-35
2023/09/20 02:29:37;;;;;;;4.90;1.70;;;17.70;78.50;;;;;;5112289;28;20035;-35
2023/09/20 02:32:03;;;;;;;3.35;1.58;;;17.70;78.60;;;;;;5112210;28;20028;-35
2023/09/20 02:34:29;;;;;;;2.40;1.40;;;17.70;78.60;;;;;;5112005;28;20039;-35
2023/09/20 02:36:56;;;;;;;3.53;1.33;;;17.60;78.60;;;;;;5112101;28;20415;-35
2023/09/20 02:39:22;;;;;;;3.92;1.60;;;17.60;78.70;;;;;;5112106;28;20031;-34
2023/09/20 02:41:48;;;;;;;3.80;1.55;;;17.60;78.80;;;;;;5112241;28;20263;-42
2023/09/20 02:44:14;;;;;;;3.80;1.77;;;17.60;78.90;;;;;;5111865;28;20488;-35
2023/09/20 02:46:40;;;;;;;3.75;1.67;;;17.60;78.90;;;;;;5112149;28;20019;-34
2023/09/20 02:49:07;;;;;;;3.97;1.50;;;17.60;79.00;;;;;;5112034;28;20091;-35
2023/09/20 02:51:35;;;;;;;4.90;1.60;;;17.50;79.00;;;;;;5112247;28;20221;-32
2023/09/20 02:54:01;;;;;;;3.90;1.52;;;17.50;79.10;;;;;;5111701;28;20072;-34
2023/09/20 02:56:26;;;;;;;4.85;1.63;;;17.50;79.20;;;;;;5112416;28;20023;-35
2023/09/20 02:58:52;;;;;;;3.67;1.60;;;17.50;79.20;;;;;;5116204;28;20020;-35
2023/09/20 03:01:20;;;;;;;4.03;1.60;;;17.50;79.30;;;;;;5116463;28;20080;-35
2023/09/20 03:03:45;;;;;;;3.20;1.50;;;17.40;79.40;;;;;;5116409;28;20073;-36
2023/09/20 03:06:11;;;;;;;2.97;1.52;;;17.40;79.50;;;;;;5115862;28;20528;-35
2023/09/20 03:08:44;;;;;;;4.32;1.52;;;17.40;79.50;;;;;;5115961;28;20068;-35
2023/09/20 03:11:11;;;;;;;4.22;1.35;;;17.30;79.60;;;;;;5116136;28;20047;-34
2023/09/20 03:13:37;;;;;;;2.90;1.50;;;17.30;79.60;;;;;;5115901;28;20095;-35
2023/09/20 03:16:03;;;;;;;3.22;1.40;;;17.30;79.70;;;;;;5115717;28;20110;-33
2023/09/20 03:18:28;;;;;;;5.47;1.50;;;17.30;79.80;;;;;;5115940;28;20023;-35
2023/09/20 03:20:54;;;;;;;3.50;1.80;;;17.30;79.90;;;;;;5115878;28;20046;-35
2023/09/20 03:23:20;;;;;;;4.38;1.70;;;17.30;79.90;;;;;;5115940;28;20047;-35
2023/09/20 03:25:45;;;;;;;3.53;1.40;;;17.30;80.00;;;;;;5115878;28;20500;-36
2023/09/20 03:28:11;;;;;;;6.07;1.77;;;17.20;80.00;;;;;;5115458;28;20098;-35
2023/09/20 03:30:38;;;;;;;3.70;1.60;;;17.20;80.00;;;;;;5115662;28;20047;-36
2023/09/20 03:33:05;;;;;;;3.50;1.40;;;17.20;80.10;;;;;;5115617;28;20487;-35
2023/09/20 03:35:32;;;;;;;4.13;1.58;;;17.20;80.20;;;;;;5115450;28;20015;-33
2023/09/20 03:37:58;;;;;;;3.63;1.50;;;17.20;80.30;;;;;;5115706;28;20073;-34
2023/09/20 03:40:24;;;;;;;4.10;1.60;;;17.20;80.30;;;;;;5115767;28;20395;-35
2023/09/20 03:42:52;;;;;;;3.88;1.63;;;17.20;80.30;;;;;;5115351;28;20069;-34
2023/09/20 03:45:19;;;;;;;4.47;1.60;;;17.20;80.30;;;;;;5115457;28;20028;-35
2023/09/20 03:47:53;;;;;;;3.42;1.60;;;17.20;80.40;;;;;;5115287;28;20166;-36
2023/09/20 03:50:19;;;;;;;3.10;1.58;;;17.20;80.30;;;;;;5115488;28;20470;-35
2023/09/20 03:52:46;;;;;;;2.95;1.58;;;17.20;80.30;;;;;;5115181;28;20051;-35
2023/09/20 03:55:11;;;;;;;4.00;1.70;;;17.30;80.40;;;;;;5115015;28;20030;-35
2023/09/20 03:57:38;;;;;;;3.92;1.77;;;17.30;80.40;;;;;;5115056;28;20102;-37
2023/09/20 04:00:11;;;;;;;3.88;1.40;;;17.30;80.40;;;;;;5115218;28;20113;-34
2023/09/20 04:02:38;;;;;;;5.07;1.95;;;17.30;80.40;;;;;;5115014;28;20046;-35
2023/09/20 04:05:13;;;;;;;4.55;1.75;;;17.40;80.40;;;;;;5115101;28;20107;-35
2023/09/20 04:07:40;;;;;;;3.22;1.67;;;17.40;80.30;;;;;;5114380;28;20050;-32
2023/09/20 04:10:07;;;;;;;3.42;1.83;;;17.40;80.30;;;;;;5114502;28;20024;-37
2023/09/20 04:12:33;;;;;;;4.13;1.70;;;17.40;80.30;;;;;;5114829;28;20025;-37
2023/09/20 04:14:59;;;;;;;6.85;1.80;;;17.50;80.40;;;;;;5114644;28;20450;-35
2023/09/20 04:17:27;;;;;;;2.65;1.30;;;17.50;80.30;;;;;;5114717;28;20043;-36
2023/09/20 04:19:53;;;;;;;3.08;1.50;;;17.50;80.30;;;;;;5114552;28;20069;-36
2023/09/20 04:22:19;;;;;;;4.05;1.75;;;17.50;80.20;;;;;;5114579;28;20474;-33
2023/09/20 04:24:44;;;;;;;3.72;1.50;;;17.50;80.20;;;;;;5114232;28;20026;-36
2023/09/20 04:27:10;;;;;;;2.90;1.70;;;17.60;80.20;;;;;;5114296;28;20060;-36
2023/09/20 04:29:36;;;;;;;2.35;1.33;;;17.60;80.20;;;;;;5096122;28;20030;-36
2023/09/20 04:32:01;;;;;;;2.08;1.45;;;17.60;80.20;;;;;;5114636;28;20381;-33
2023/09/20 04:34:28;;;;;;;3.53;1.70;;;17.60;80.30;;;;;;5114736;28;20028;-37
2023/09/20 04:36:54;;;;;;;5.18;1.80;;;17.60;80.30;;;;;;5115006;28;20108;-36
2023/09/20 04:39:20;;;;;;;4.05;2.10;;;17.60;80.30;;;;;;5115041;28;20055;-34
2023/09/20 04:41:46;;;;;;;3.63;1.55;;;17.60;80.40;;;;;;5114303;28;20425;-36
2023/09/20 04:44:13;;;;;;;2.97;1.40;;;17.60;80.40;;;;;;5114046;28;20108;-36
2023/09/20 04:46:39;;;;;;;4.72;1.80;;;17.50;80.50;;;;;;5113924;28;20069;-36
2023/09/20 04:49:06;;;;;;;4.60;1.70;;;17.50;80.60;;;;;;5114120;28;20031;-36
2023/09/20 04:51:32;;;;;;;2.95;1.80;;;17.50;80.70;;;;;;5114329;28;20385;-34
2023/09/20 04:53:58;;;;;;;3.50;1.75;;;17.50;80.80;;;;;;5114020;28;20550;-35
2023/09/20 04:56:27;;;;;;;5.47;2.00;;;17.40;80.80;;;;;;5113670;28;20047;-35
2023/09/20 04:58:53;;;;;;;5.75;1.58;;;17.40;81.00;;;;;;5113770;28;20051;-35
2023/09/20 05:01:18;;;;;;;5.38;1.80;;;17.30;81.00;;;;;;5114107;28;20093;-33
2023/09/20 05:03:44;;;;;;;5.88;1.75;;;17.30;81.10;;;;;;5113640;28;20020;-46
2023/09/20 05:06:09;;;;;;;3.25;1.60;;;17.30;81.20;;;;;;5113702;28;20016;-35
2023/09/20 05:08:36;;;;;;;6.60;2.10;;;17.30;81.30;;;;;;5113524;28;20499;-36
2023/09/20 05:11:03;;;;;;;4.45;2.00;;;17.30;81.40;;;;;;5113785;28;20465;-35
2023/09/20 05:13:28;;;;;;;3.15;1.70;;;17.20;81.40;;;;;;5113874;28;20015;-35
2023/09/20 05:15:54;;;;;;;2.90;1.60;;;17.20;81.50;;;;;;5113243;28;20161;-37
2023/09/20 05:18:20;;;;;;;4.75;1.90;;;17.20;81.50;;;;;;5094895;28;20121;-34
2023/09/20 05:20:45;;;;;;;5.32;1.75;;;17.20;81.60;;;;;;5112818;28;20020;-41
2023/09/20 05:23:11;;;;;;;8.65;2.15;;;17.20;81.60;;;;;;5113335;28;20098;-35
2023/09/20 05:25:37;;;;;;;3.45;1.77;;;17.20;81.60;;;;;;5113145;28;20031;-37
2023/09/20 05:28:03;;;;;;;3.97;1.75;;;17.20;81.70;;;;;;5112901;28;20051;-35
2023/09/20 05:30:30;;;;;;;5.45;1.90;;;17.20;81.70;;;;;;5113033;28;20020;-35
2023/09/20 05:32:56;;;;;;;6.68;2.10;;;17.20;81.70;;;;;;5113235;28;20404;-37
2023/09/20 05:35:22;;;;;;;3.22;1.55;;;17.20;81.80;;;;;;5113029;28;20168;-36
2023/09/20 05:37:48;;;;;;;7.60;2.13;;;17.10;81.70;;;;;;5113353;28;20102;-36
2023/09/20 05:40:17;;;;;;;4.50;1.90;;;17.20;81.80;;;;;;5112924;28;20432;-35
2023/09/20 05:42:46;;;;;;;4.50;2.05;;;17.10;81.80;;;;;;5113135;28;20504;-35
2023/09/20 05:45:12;;;;;;;5.47;1.90;;;17.20;81.90;;;;;;5094428;28;20032;-37
2023/09/20 05:47:39;;;;;;;4.03;1.90;;;17.10;82.50;;;;;;5112710;28;20104;-35
2023/09/20 05:50:07;;;;;;;3.67;1.70;;;17.20;82.00;;;;;;5112668;28;20034;-31
2023/09/20 05:52:32;;;;;;;7.00;2.00;;;17.20;82.00;;;;;;5112673;28;20492;-36
2023/09/20 05:54:58;;;;;;;5.32;2.25;;;17.20;81.90;;;;;;5112428;28;20099;-35
2023/09/20 05:57:27;;;;;;;5.25;1.95;;;17.20;81.90;;;;;;5112608;28;20016;-35
2023/09/20 05:59:54;;;;;;;5.38;2.22;;;17.20;81.90;;;;;;5112884;28;20511;-35
2023/09/20 06:02:20;;;;;;;3.55;1.80;;;17.30;82.00;;;;;;5112753;28;20024;-35
2023/09/20 06:04:46;;;;;;;2.90;1.77;;;17.30;81.90;;;;;;5112640;28;20526;-35
2023/09/20 06:07:11;;;;;;;4.70;1.77;;;17.30;81.90;;;;;;5112311;28;20057;-35
2023/09/20 06:09:37;;;;;;;4.63;1.90;;;17.40;81.90;;;;;;5112600;28;20024;-36
2023/09/20 06:12:03;;;;;;;5.90;2.10;;;17.40;81.80;;;;;;5112473;28;20051;-36
2023/09/20 06:14:29;;;;;;;5.82;1.85;;;17.40;81.70;;;;;;5112410;28;20024;-39
2023/09/20 06:16:55;;;;;;;5.40;2.10;;;17.50;81.70;;;;;;5093955;28;20023;-35
2023/09/20 06:19:20;;;;;;;4.13;1.70;;;17.50;81.60;;;;;;5112214;28;20023;-35
2023/09/20 06:21:47;;;;;;;5.15;2.22;;;17.60;81.60;;;;;;5112262;28;20354;-35
2023/09/20 06:24:12;;;;;;;4.70;2.30;;;17.60;81.60;;;;;;5112132;28;20064;-35
2023/09/20 06:26:43;;;;;;;3.00;1.92;;;17.60;81.40;;;;;;5111928;28;20024;-35
2023/09/20 06:29:09;;;;;;;3.13;1.65;;;17.70;81.40;;;;;;5112255;28;20032;-50
2023/09/20 06:31:37;;;;;;;3.90;1.60;;;17.70;81.30;;;;;;5112042;28;20027;-34
2023/09/20 06:34:03;;;;;;;3.53;1.63;;;17.80;81.20;;;;;;5111985;28;20472;-35
2023/09/20 06:36:29;;;;;;;3.97;1.80;;;17.90;81.20;;;;;;5111885;28;20106;-36
2023/09/20 06:38:55;;;;;;;3.00;1.77;;;17.90;81.10;;;;;;5112361;28;20102;-35
2023/09/20 06:41:20;;;;;;;5.45;2.10;;;17.90;81.00;;;;;;5112054;28;20481;-35
2023/09/20 06:43:46;;;;;;;4.05;1.88;;;18.00;81.00;;;;;;5112174;28;20024;-35
2023/09/20 06:46:12;;;;;;;3.53;2.00;;;18.00;80.90;;;;;;5111706;28;20059;-37
2023/09/20 06:48:38;;;;;;;5.10;1.80;;;18.00;80.90;;;;;;5112083;28;20058;-37
2023/09/20 06:51:03;;;;;;;3.80;1.80;;;18.00;80.80;;;;;;5094003;28;20031;-35
2023/09/20 06:53:30;;;;;;;3.80;1.90;;;18.10;80.80;;;;;;5111914;28;20058;-39
2023/09/20 06:55:56;;;;;;;2.25;1.40;;;18.10;80.80;;;;;;5111864;28;20382;-36
2023/09/20 06:58:21;;;;;;;4.00;1.98;;;18.10;80.70;;;;;;5111754;28;20018;-35
2023/09/20 07:00:48;;;;;;;4.20;1.80;;;18.20;80.80;;;;;;5093648;28;20051;-34
2023/09/20 07:03:14;;;;;;;3.72;1.88;;;18.10;80.70;;;;;;5111871;28;20027;-36
2023/09/20 07:05:40;;;;;;;4.25;2.00;;;18.20;80.70;;;;;;5111875;28;20076;-36
2023/09/20 07:08:07;;;;;;;2.95;1.60;;;18.20;80.70;;;;;;5111903;28;20108;-36
2023/09/20 07:10:33;;;;;;;4.43;1.90;;;18.20;80.60;;;;;;5111822;28;20059;-35
2023/09/20 07:12:58;;;;;;;3.10;1.80;;;18.20;80.60;;;;;;5111743;28;20103;-35
2023/09/20 07:15:25;;;;;;;3.78;1.85;;;18.30;80.60;;;;;;5111769;28;20032;-35
2023/09/20 07:18:07;;;;;;;5.07;1.80;;;18.30;80.50;;;;;;5111690;28;20030;-34
2023/09/20 07:20:33;;;;;;;4.15;1.80;;;18.40;80.40;;;;;;5111718;28;20019;-36
2023/09/20 07:22:59;;;;;;;2.80;1.50;;;18.50;80.30;;;;;;5111373;28;20062;-35
2023/09/20 07:25:27;;;;;;;4.72;2.00;;;18.60;80.20;;;;;;5111347;28;20102;-35
2023/09/20 07:27:59;;;;;;;2.13;1.52;;;18.60;79.90;;;;;;5111399;28;20050;-35
2023/09/20 07:30:31;;;;;;;2.92;1.48;;;18.70;79.80;;;;;;5111515;28;20688;-36
2023/09/20 07:32:59;;;;;;;3.58;1.63;;;18.90;79.70;;;;;;5111586;28;20089;-36
2023/09/20 07:35:36;;;;;;;3.13;1.75;;;18.90;79.40;;;;;;5111661;28;20024;-35
2023/09/20 07:38:04;;;;;;;2.97;1.63;;;19.00;79.20;;;;;;5111350;28;20115;-34
2023/09/20 07:40:38;;;;;;;3.08;1.55;;;19.10;79.10;;;;;;5111393;28;20026;-35
2023/09/20 07:43:06;;;;;;;2.08;1.60;;;19.20;79.00;;;;;;5113020;28;20067;-34
2023/09/20 07:45:37;;;;;;;3.55;1.70;;;19.10;78.80;;;;;;5115113;28;20016;-38
2023/09/20 07:48:04;;;;;;;6.95;2.00;;;19.10;78.70;;;;;;5115182;28;20427;-35
2023/09/20 07:50:30;;;;;;;3.72;1.90;;;19.20;78.80;;;;;;5115256;28;20078;-37
2023/09/20 07:52:56;;;;;;;2.58;1.58;;;19.20;78.70;;;;;;5115167;28;20034;-35
2023/09/20 07:55:22;;;;;;;3.08;1.50;;;19.20;78.80;;;;;;5115027;28;20019;-36
2023/09/20 07:57:47;;;;;;;5.47;1.52;;;19.20;78.70;;;;;;5115181;28;20417;-37
2023/09/20 08:00:15;;;;;;;2.72;1.60;;;19.20;78.50;;;;;;5115073;28;20028;-35
2023/09/20 08:02:46;;;;;;;2.72;1.40;;;19.20;78.50;;;;;;5115014;28;20302;-35
2023/09/20 08:05:13;;;;;;;2.17;1.48;;;19.30;78.50;;;;;;5114815;28;20049;-34
2023/09/20 08:07:38;;;;;;;4.20;1.90;;;19.30;78.40;;;;;;5114848;28;20046;-35
2023/09/20 08:10:05;;;;;;;1.83;1.50;;;19.30;78.20;;;;;;5114862;28;20062;-40
2023/09/20 08:12:31;;;;;;;3.28;1.65;;;19.40;78.20;;;;;;5115019;28;20027;-34
2023/09/20 08:14:57;;;;;;;3.08;1.42;;;19.60;78.00;;;;;;5114648;28;20169;-35
2023/09/20 08:20:11;;;;;;;4.65;1.67;;;19.70;77.50;;;;;;5114613;28;20080;-33
2023/09/20 09:01:07;;;;;;;2.78;1.70;;;20.10;76.30;;;;;;5113826;28;20043;-35
2023/09/20 09:03:33;;;;;;;3.75;1.52;;;20.10;76.20;;;;;;5095487;28;20043;-36
2023/09/20 09:06:01;;;;;;;4.03;1.42;;;20.00;76.20;;;;;;5113796;28;20036;-36
2023/09/20 09:08:28;;;;;;;2.20;1.23;;;20.00;76.20;;;;;;5113608;28;20022;-35
2023/09/20 09:10:54;;;;;;;2.95;1.50;;;20.00;76.30;;;;;;5113903;28;20042;-34
2023/09/20 09:13:20;;;;;;;4.50;1.58;;;20.00;76.30;;;;;;5113475;28;20457;-36
2023/09/20 09:15:47;;;;;;;2.30;1.27;;;20.00;76.40;;;;;;5113098;28;20031;-34
2023/09/20 09:18:18;;;;;;;1.50;1.38;;;20.00;76.40;;;;;;5113477;28;20072;-35
2023/09/20 09:20:45;;;;;;;3.85;1.33;;;20.00;76.20;;;;;;5113635;28;20028;-35
2023/09/20 09:23:11;;;;;;;1.73;1.48;;;20.10;76.20;;;;;;5113744;28;20520;-34
2023/09/20 09:25:37;;;;;;;3.00;1.30;;;20.10;76.00;;;;;;5113408;28;20028;-34
2023/09/20 09:28:02;;;;;;;2.15;1.30;;;20.20;75.70;;;;;;5113252;28;20074;-34
2023/09/20 09:30:31;;;;;;;2.92;1.20;;;20.20;75.50;;;;;;5113402;28;20074;-34
2023/09/20 09:32:57;;;;;;;2.15;1.55;;;20.30;75.40;;;;;;5113099;28;20096;-35
2023/09/20 09:35:23;;;;;;;3.10;1.50;;;20.30;75.00;;;;;;5113208;28;20054;-35
2023/09/20 09:37:48;;;;;;;1.83;1.25;;;20.30;75.00;;;;;;5113353;28;20016;-37
2023/09/20 09:40:14;;;;;;;2.55;1.40;;;20.30;75.10;;;;;;5113165;28;20384;-35
2023/09/20 09:42:41;;;;;;;3.10;1.60;;;20.40;75.10;;;;;;5112955;28;20055;-37
2023/09/20 09:45:07;;;;;;;4.78;2.22;;;20.40;75.00;;;;;;5112777;28;20075;-35
2023/09/20 09:47:35;;;;;;;2.70;1.42;;;20.50;75.60;;;;;;5112903;28;20035;-36
2023/09/20 09:50:03;;;;;;;2.78;1.90;;;20.60;74.80;;;;;;5094618;28;20038;-34
2023/09/20 09:52:29;;;;;;;2.90;1.73;;;20.60;74.50;;;;;;5113166;28;20038;-37
2023/09/20 09:54:55;;;;;;;3.45;1.80;;;20.70;74.40;;;;;;5112433;28;20481;-36
2023/09/20 09:57:21;;;;;;;3.72;1.75;;;20.70;74.20;;;;;;5112678;28;20024;-36
2023/09/20 09:59:51;;;;;;;4.05;2.03;;;20.70;74.00;;;;;;5112589;28;20012;-36
2023/09/20 10:02:21;;;;;;;3.88;2.00;;;20.70;73.90;;;;;;5112952;28;20480;-36
2023/09/20 10:05:02;;;;;;;3.20;1.83;;;20.80;73.50;;;;;;5112438;28;20058;-35
2023/09/20 10:07:49;;;;;;;4.32;2.30;;;20.90;73.30;;;;;;5112777;28;20495;-36
2023/09/20 10:10:16;;;;;;;5.95;2.03;;;20.90;73.20;;;;;;5111788;28;20046;-33
2023/09/20 10:12:46;;;;;;;4.53;2.40;;;21.00;73.00;;;;;;5112542;28;20481;-36
2023/09/20 10:15:14;;;;;;;3.97;2.00;;;21.00;72.80;;;;;;5112281;28;20027;-35
2023/09/20 10:17:59;;;;;;;3.25;2.10;;;21.00;72.90;;;;;;5112890;28;20024;-44
2023/09/20 10:21:04;;;;;;;2.53;1.80;;;21.00;72.80;;;;;;5112132;28;20030;-36
2023/09/20 10:23:34;;;;;;;4.53;2.08;;;21.10;72.70;;;;;;5112459;28;20034;-36
2023/09/20 10:26:00;;;;;;;3.20;1.63;;;21.10;72.60;;;;;;5112600;28;20034;-34
2023/09/20 10:28:31;;;;;;;4.25;1.95;;;21.10;72.70;;;;;;5112105;28;20039;-35
2023/09/20 10:31:04;;;;;;;2.50;1.70;;;21.20;72.60;;;;;;5112276;28;20027;-36
2023/09/20 10:33:59;;;;;;;;;;;21.30;72.60;;;;;;5112809;28;20066;-35
2023/09/20 10:36:28;;;;;;;3.97;1.80;;;21.30;72.40;;;;;;5090235;28;20415;-35
2023/09/20 10:39:21;;;;;;;4.90;1.83;;;21.30;72.40;;;;;;5112076;28;20027;-35
2023/09/20 10:41:49;;;;;;;2.97;2.00;;;21.30;72.40;;;;;;5112255;28;20023;-34
2023/09/20 10:44:28;;;;;;;3.85;2.10;;;21.20;72.40;;;;;;5111837;28;20031;-32
2023/09/20 10:46:55;;;;;;;3.67;1.80;;;21.30;72.30;;;;;;5112124;28;20481;-43
2023/09/20 10:49:41;;;;;;;4.85;1.77;;;21.30;72.20;;;;;;5112394;28;20040;-35
2023/09/20 10:52:07;;;;;;;2.30;1.73;;;21.50;72.10;;;;;;5111876;28;20088;-36
2023/09/20 10:54:36;;;;;;;2.42;1.60;;;21.60;71.80;;;;;;5111833;28;20031;-34
2023/09/20 10:57:10;;;;;;;2.72;1.90;;;21.70;71.60;;;;;;5112330;28;20024;-36
2023/09/20 10:59:37;;;;;;;3.10;1.80;;;21.90;71.20;;;;;;5112170;28;20036;-36
2023/09/20 11:02:08;;;;;;;3.97;1.80;;;22.00;70.90;;;;;;5111848;28;20110;-34
2023/09/20 11:04:35;;;;;;;4.70;1.67;;;22.00;70.60;;;;;;5112008;28;20038;-36
2023/09/20 11:07:02;;;;;;;3.25;1.60;;;22.00;70.60;;;;;;5111913;28;20366;-36
2023/09/20 11:09:33;;;;;;;2.60;1.67;;;22.00;70.50;;;;;;5111888;28;20027;-36
2023/09/20 11:12:06;;;;;;;2.35;1.48;;;22.10;70.60;;;;;;5111909;28;20024;-40
2023/09/20 11:14:32;;;;;;;;;;;22.20;70.30;;;;;;5112247;28;20035;-36
2023/09/20 11:16:58;;;;;;;3.33;1.60;;;22.20;70.10;;;;;;5111691;28;19908;-34
2023/09/20 11:19:25;;;;;;;4.40;1.80;;;22.20;70.20;;;;;;5115873;28;20491;-36
2023/09/20 11:21:51;;;;;;;1.92;1.27;;;22.30;70.10;;;;;;5116027;28;20492;-35
2023/09/20 11:24:16;;;;;;;3.80;1.50;;;22.40;70.10;;;;;;5115537;28;20114;-35
2023/09/20 11:26:47;;;;;;;2.78;2.10;;;22.50;70.00;;;;;;5115860;28;20042;-38
2023/09/20 11:29:15;;;;;;;10.80;8.02;;;22.50;69.60;;;;;;5115498;28;20028;-35
2023/09/20 11:31:43;;;;;;;6.85;4.70;;;22.50;69.30;;;;;;5115979;28;20047;-36
2023/09/20 11:34:08;;;;;;;6.50;3.15;;;22.50;69.10;;;;;;5115278;28;20156;-35
2023/09/20 11:36:37;;;;;;;4.88;2.90;;;22.40;69.70;;;;;;5115446;28;20098;-35
2023/09/20 11:39:05;;;;;;;2.28;2.08;;;22.40;69.10;;;;;;5115729;28;20028;-36
2023/09/20 11:41:32;;;;;;;3.65;1.90;;;22.40;69.00;;;;;;5115761;28;20069;-36
2023/09/20 11:44:02;;;;;;;3.60;1.70;;;22.40;69.20;;;;;;5115922;28;20030;-35
2023/09/20 11:46:37;;;;;;;3.70;1.67;;;22.40;69.20;;;;;;5115209;28;20024;-42
2023/09/20 11:49:08;;;;;;;3.83;1.98;;;22.40;69.00;;;;;;5115263;28;20285;-36
2023/09/20 11:51:35;;;;;;;2.63;1.50;;;22.40;69.20;;;;;;5115304;28;20036;-36
2023/09/20 11:54:05;;;;;;;3.45;1.75;;;22.40;69.20;;;;;;5115184;28;20020;-36
2023/09/20 11:56:32;;;;;;;2.30;1.60;;;22.50;69.00;;;;;;5115288;28;20020;-35
2023/09/20 11:59:10;;;;;;;2.70;1.65;;;22.50;69.00;;;;;;5115273;28;20023;-35
2023/09/20 12:01:41;;;;;;;4.18;1.48;;;22.40;69.00;;;;;;5115276;28;20020;-35
2023/09/20 12:04:07;;;;;;;1.92;1.42;;;22.40;69.20;;;;;;5114872;28;20020;-37
2023/09/20 12:06:33;;;;;;;2.10;1.38;;;22.50;69.00;;;;;;5114939;28;20023;-36
2023/09/20 12:09:01;;;;;;;4.65;1.50;;;22.60;68.60;;;;;;5114958;28;20084;-36
2023/09/20 12:11:28;;;;;;;2.67;1.90;;;22.70;68.30;;;;;;5115147;28;20496;-35
2023/09/20 12:13:53;;;;;;;3.67;1.70;;;22.80;67.80;;;;;;5115218;28;20400;-35
2023/09/20 12:16:22;;;;;;;4.35;2.28;;;22.90;67.40;;;;;;5114710;28;20034;-36
2023/09/20 12:18:49;;;;;;;4.00;1.60;;;23.00;67.10;;;;;;5114931;28;20053;-37
2023/09/20 12:21:15;;;;;;;2.88;1.48;;;23.00;67.10;;;;;;5114993;28;20112;-36
2023/09/20 12:23:41;;;;;;;2.50;1.50;;;23.10;67.00;;;;;;5114874;28;20047;-37
2023/09/20 12:26:08;;;;;;;2.60;1.67;;;23.10;66.70;;;;;;5114492;28;20031;-36
2023/09/20 12:28:34;;;;;;;2.97;1.50;;;23.20;66.50;;;;;;5113887;28;20563;-35
2023/09/20 12:30:59;;;;;;;2.65;1.50;;;23.10;66.40;;;;;;5113846;28;20035;-36
2023/09/20 12:33:25;;;;;;;1.90;1.33;;;23.10;66.30;;;;;;5114425;28;20129;-35
2023/09/20 12:35:54;;;;;;;1.15;1.00;;;23.20;66.30;;;;;;5114308;28;20023;-37
2023/09/20 12:38:20;;;;;;;2.35;1.50;;;23.20;66.30;;;;;;5114282;28;20031;-36
2023/09/20 12:40:47;;;;;;;1.83;1.20;;;23.20;66.40;;;;;;5114294;28;20106;-39
2023/09/20 12:43:15;;;;;;;1.63;1.17;;;23.20;66.40;;;;;;5114604;28;20563;-36
2023/09/20 12:45:42;;;;;;;2.25;1.30;;;23.30;66.40;;;;;;5113974;28;20477;-37
2023/09/20 12:48:08;;;;;;;3.47;1.67;;;23.30;66.20;;;;;;5095571;28;20038;-35
2023/09/20 12:50:36;;;;;;;4.68;1.90;;;23.30;65.80;;;;;;5114144;28;20489;-34
2023/09/20 12:53:09;;;;;;;1.63;1.20;;;23.30;65.80;;;;;;5113846;28;20069;-35
2023/09/20 12:55:38;;;;;;;1.20;1.10;;;23.20;65.80;;;;;;5114063;28;20028;-32
2023/09/20 12:58:06;;;;;;;3.47;1.30;;;23.10;66.00;;;;;;5114116;28;20504;-35
2023/09/20 13:00:33;;;;;;;2.58;1.27;;;23.10;66.00;;;;;;5114192;28;20027;-35
2023/09/20 13:02:59;;;;;;;1.77;1.20;;;23.00;66.00;;;;;;5095440;28;20054;-34
2023/09/20 13:05:25;;;;;;;1.85;1.20;;;23.00;66.00;;;;;;5113523;28;20035;-36
2023/09/20 13:07:51;;;;;;;2.03;1.40;;;23.10;65.90;;;;;;5095269;28;20031;-37
2023/09/20 13:10:19;;;;;;;2.42;1.30;;;23.10;65.80;;;;;;5113318;28;20077;-36
2023/09/20 13:12:45;;;;;;;3.35;1.73;;;23.10;65.60;;;;;;5113735;28;20035;-34
2023/09/20 13:15:14;;;;;;;2.60;1.20;;;23.00;65.50;;;;;;5113317;28;20032;-35
2023/09/20 13:17:44;;;;;;;2.90;1.40;;;23.10;65.40;;;;;;5113691;28;20020;-36
2023/09/20 13:20:13;;;;;;;2.58;1.88;;;23.20;64.90;;;;;;5113177;28;20027;-36
2023/09/20 13:22:40;;;;;;;2.67;1.48;;;23.20;64.80;;;;;;5113351;28;20063;-36
2023/09/20 13:25:08;;;;;;;4.07;1.25;;;23.30;64.60;;;;;;5112756;28;20038;-41
2023/09/20 13:27:34;;;;;;;2.47;1.42;;;23.40;64.40;;;;;;5095574;28;20522;-34
2023/09/20 13:30:00;;;;;;;3.00;1.33;;;23.40;64.40;;;;;;5113336;28;20019;-37
2023/09/20 13:32:26;;;;;;;2.17;1.33;;;23.40;64.30;;;;;;5113245;28;20503;-36